sensor_id;sensor_type;location;lat;lon;timestamp;P1;durP1;ratioP1;P2;durP2;ratioP2
78931;SDS011;68331;53.362;55.932;2024-01-30T00:02:11;55.75;;;18.77;;
78931;SDS011;68331;53.362;55.932;2024-01-30T00:04:37;49.33;;;17.55;;
78931;SDS011;68331;53.362;55.932;2024-01-30T00:07:03;51.42;;;19.33;;
78931;SDS011;68331;53.362;55.932;2024-01-30T00:09:29;51.75;;;19.73;;
78931;SDS011;68331;53.362;55.932;2024-01-30T00:11:55;57.67;;;17.85;;
78931;SDS011;68331;53.362;55.932;2024-01-30T00:14:21;46.67;;;18.95;;
78931;SDS011;68331;53.362;55.932;2024-01-30T00:16:47;47.45;;;17.20;;
78931;SDS011;68331;53.362;55.932;2024-01-30T00:19:13;46.83;;;17.33;;
78931;SDS011;68331;53.362;55.932;2024-01-30T00:21:38;41.95;;;18.17;;
78931;SDS011;68331;53.362;55.932;2024-01-30T00:24:04;42.28;;;16.45;;
78931;SDS011;68331;53.362;55.932;2024-01-30T00:26:30;45.60;;;17.13;;
78931;SDS011;68331;53.362;55.932;2024-01-30T00:28:56;42.83;;;15.70;;
78931;SDS011;68331;53.362;55.932;2024-01-30T00:31:21;40.58;;;15.80;;
78931;SDS011;68331;53.362;55.932;2024-01-30T00:33:47;46.85;;;15.77;;
78931;SDS011;68331;53.362;55.932;2024-01-30T00:36:13;41.42;;;17.00;;
78931;SDS011;68331;53.362;55.932;2024-01-30T00:38:39;45.17;;;15.80;;
78931;SDS011;68331;53.362;55.932;2024-01-30T00:41:07;42.40;;;14.88;;
78931;SDS011;68331;53.362;55.932;2024-01-30T00:43:33;45.20;;;15.95;;
78931;SDS011;68331;53.362;55.932;2024-01-30T00:45:59;43.97;;;16.00;;
78931;SDS011;68331;53.362;55.932;2024-01-30T00:48:25;56.22;;;16.65;;
78931;SDS011;68331;53.362;55.932;2024-01-30T00:50:51;43.08;;;14.57;;
78931;SDS011;68331;53.362;55.932;2024-01-30T00:53:16;36.38;;;16.15;;
78931;SDS011;68331;53.362;55.932;2024-01-30T00:55:43;46.30;;;16.58;;
78931;SDS011;68331;53.362;55.932;2024-01-30T00:58:08;42.22;;;15.77;;
78931;SDS011;68331;53.362;55.932;2024-01-30T01:00:34;37.83;;;16.00;;
78931;SDS011;68331;53.362;55.932;2024-01-30T01:03:00;33.92;;;15.52;;
78931;SDS011;68331;53.362;55.932;2024-01-30T01:05:26;37.47;;;16.85;;
78931;SDS011;68331;53.362;55.932;2024-01-30T01:07:52;41.50;;;15.45;;
78931;SDS011;68331;53.362;55.932;2024-01-30T01:10:19;43.42;;;16.83;;
78931;SDS011;68331;53.362;55.932;2024-01-30T01:12:45;42.53;;;15.82;;
78931;SDS011;68331;53.362;55.932;2024-01-30T01:15:11;46.72;;;20.65;;
78931;SDS011;68331;53.362;55.932;2024-01-30T01:17:38;43.70;;;15.80;;
78931;SDS011;68331;53.362;55.932;2024-01-30T01:20:05;44.38;;;16.55;;
78931;SDS011;68331;53.362;55.932;2024-01-30T01:22:32;38.20;;;16.20;;
78931;SDS011;68331;53.362;55.932;2024-01-30T01:24:59;43.30;;;17.27;;
78931;SDS011;68331;53.362;55.932;2024-01-30T01:27:25;38.47;;;15.50;;
78931;SDS011;68331;53.362;55.932;2024-01-30T01:29:51;34.88;;;16.23;;
78931;SDS011;68331;53.362;55.932;2024-01-30T01:32:17;37.42;;;16.73;;
78931;SDS011;68331;53.362;55.932;2024-01-30T01:34:43;38.20;;;15.93;;
78931;SDS011;68331;53.362;55.932;2024-01-30T01:37:09;39.72;;;16.15;;
78931;SDS011;68331;53.362;55.932;2024-01-30T01:39:35;37.25;;;16.38;;
78931;SDS011;68331;53.362;55.932;2024-01-30T01:42:01;42.88;;;17.48;;
78931;SDS011;68331;53.362;55.932;2024-01-30T01:44:27;38.30;;;16.40;;
78931;SDS011;68331;53.362;55.932;2024-01-30T01:46:54;41.03;;;18.15;;
78931;SDS011;68331;53.362;55.932;2024-01-30T01:49:27;42.83;;;18.15;;
78931;SDS011;68331;53.362;55.932;2024-01-30T01:51:55;46.88;;;17.50;;
78931;SDS011;68331;53.362;55.932;2024-01-30T01:54:24;36.38;;;16.65;;
78931;SDS011;68331;53.362;55.932;2024-01-30T01:56:52;35.40;;;16.15;;
78931;SDS011;68331;53.362;55.932;2024-01-30T01:59:18;41.70;;;17.27;;
78931;SDS011;68331;53.362;55.932;2024-01-30T02:01:45;43.30;;;17.70;;
78931;SDS011;68331;53.362;55.932;2024-01-30T02:04:14;30.33;;;14.85;;
78931;SDS011;68331;53.362;55.932;2024-01-30T02:06:42;28.45;;;15.00;;
78931;SDS011;68331;53.362;55.932;2024-01-30T02:09:08;33.65;;;15.02;;
78931;SDS011;68331;53.362;55.932;2024-01-30T02:11:34;38.70;;;15.82;;
78931;SDS011;68331;53.362;55.932;2024-01-30T02:14:04;28.63;;;14.70;;
78931;SDS011;68331;53.362;55.932;2024-01-30T02:16:30;44.15;;;18.58;;
78931;SDS011;68331;53.362;55.932;2024-01-30T02:18:56;37.85;;;15.73;;
78931;SDS011;68331;53.362;55.932;2024-01-30T02:21:29;30.60;;;15.02;;
78931;SDS011;68331;53.362;55.932;2024-01-30T02:23:55;33.70;;;14.63;;
78931;SDS011;68331;53.362;55.932;2024-01-30T02:26:22;35.58;;;15.55;;
78931;SDS011;68331;53.362;55.932;2024-01-30T02:28:48;39.03;;;16.27;;
78931;SDS011;68331;53.362;55.932;2024-01-30T02:31:14;37.83;;;16.13;;
78931;SDS011;68331;53.362;55.932;2024-01-30T02:33:40;40.00;;;16.73;;
78931;SDS011;68331;53.362;55.932;2024-01-30T02:36:06;41.53;;;18.10;;
78931;SDS011;68331;53.362;55.932;2024-01-30T02:38:32;38.20;;;17.67;;
78931;SDS011;68331;53.362;55.932;2024-01-30T02:40:58;43.03;;;18.75;;
78931;SDS011;68331;53.362;55.932;2024-01-30T02:43:24;45.63;;;17.88;;
78931;SDS011;68331;53.362;55.932;2024-01-30T02:45:50;42.83;;;18.58;;
78931;SDS011;68331;53.362;55.932;2024-01-30T02:48:16;44.53;;;18.80;;
78931;SDS011;68331;53.362;55.932;2024-01-30T02:50:42;40.15;;;19.27;;
78931;SDS011;68331;53.362;55.932;2024-01-30T02:53:08;49.03;;;22.48;;
78931;SDS011;68331;53.362;55.932;2024-01-30T02:55:34;48.00;;;21.98;;
78931;SDS011;68331;53.362;55.932;2024-01-30T02:58:00;52.30;;;22.77;;
78931;SDS011;68331;53.362;55.932;2024-01-30T03:00:26;47.00;;;21.25;;
78931;SDS011;68331;53.362;55.932;2024-01-30T03:02:52;51.75;;;22.60;;
78931;SDS011;68331;53.362;55.932;2024-01-30T03:05:17;58.65;;;22.65;;
78931;SDS011;68331;53.362;55.932;2024-01-30T03:07:43;50.10;;;21.50;;
78931;SDS011;68331;53.362;55.932;2024-01-30T03:10:09;49.45;;;20.85;;
78931;SDS011;68331;53.362;55.932;2024-01-30T03:12:35;53.97;;;21.08;;
78931;SDS011;68331;53.362;55.932;2024-01-30T03:15:01;54.97;;;21.42;;
78931;SDS011;68331;53.362;55.932;2024-01-30T03:17:28;44.08;;;20.65;;
78931;SDS011;68331;53.362;55.932;2024-01-30T03:19:54;55.10;;;24.40;;
78931;SDS011;68331;53.362;55.932;2024-01-30T03:22:20;42.40;;;21.17;;
78931;SDS011;68331;53.362;55.932;2024-01-30T03:24:45;57.28;;;21.98;;
78931;SDS011;68331;53.362;55.932;2024-01-30T03:27:11;51.05;;;22.70;;
78931;SDS011;68331;53.362;55.932;2024-01-30T03:29:37;48.78;;;21.67;;
78931;SDS011;68331;53.362;55.932;2024-01-30T03:32:03;53.08;;;23.55;;
78931;SDS011;68331;53.362;55.932;2024-01-30T03:34:29;46.30;;;22.10;;
78931;SDS011;68331;53.362;55.932;2024-01-30T03:36:55;57.00;;;21.50;;
78931;SDS011;68331;53.362;55.932;2024-01-30T03:39:21;46.65;;;22.23;;
78931;SDS011;68331;53.362;55.932;2024-01-30T03:41:48;46.85;;;19.00;;
78931;SDS011;68331;53.362;55.932;2024-01-30T03:44:13;42.97;;;19.48;;
78931;SDS011;68331;53.362;55.932;2024-01-30T03:46:39;49.50;;;20.20;;
78931;SDS011;68331;53.362;55.932;2024-01-30T03:49:05;48.67;;;19.92;;
78931;SDS011;68331;53.362;55.932;2024-01-30T03:51:31;39.33;;;18.98;;
78931;SDS011;68331;53.362;55.932;2024-01-30T03:53:57;37.00;;;19.27;;
78931;SDS011;68331;53.362;55.932;2024-01-30T03:56:22;38.88;;;18.30;;
78931;SDS011;68331;53.362;55.932;2024-01-30T03:58:50;41.15;;;20.42;;
78931;SDS011;68331;53.362;55.932;2024-01-30T04:01:16;44.63;;;19.65;;
78931;SDS011;68331;53.362;55.932;2024-01-30T04:03:42;46.28;;;21.15;;
78931;SDS011;68331;53.362;55.932;2024-01-30T04:06:09;48.20;;;20.27;;
78931;SDS011;68331;53.362;55.932;2024-01-30T04:08:35;44.22;;;18.77;;
78931;SDS011;68331;53.362;55.932;2024-01-30T04:11:04;41.40;;;18.98;;
78931;SDS011;68331;53.362;55.932;2024-01-30T04:13:33;42.05;;;19.00;;
78931;SDS011;68331;53.362;55.932;2024-01-30T04:15:59;40.72;;;17.98;;
78931;SDS011;68331;53.362;55.932;2024-01-30T04:18:29;41.90;;;19.15;;
78931;SDS011;68331;53.362;55.932;2024-01-30T04:20:55;37.42;;;17.40;;
78931;SDS011;68331;53.362;55.932;2024-01-30T04:23:21;36.42;;;19.73;;
78931;SDS011;68331;53.362;55.932;2024-01-30T04:25:47;35.30;;;17.60;;
78931;SDS011;68331;53.362;55.932;2024-01-30T04:28:13;36.10;;;17.40;;
78931;SDS011;68331;53.362;55.932;2024-01-30T04:30:38;36.95;;;18.70;;
78931;SDS011;68331;53.362;55.932;2024-01-30T04:33:05;41.58;;;17.73;;
78931;SDS011;68331;53.362;55.932;2024-01-30T04:35:31;41.00;;;18.63;;
78931;SDS011;68331;53.362;55.932;2024-01-30T04:37:56;39.95;;;19.63;;
78931;SDS011;68331;53.362;55.932;2024-01-30T04:40:22;41.42;;;18.75;;
78931;SDS011;68331;53.362;55.932;2024-01-30T04:42:48;39.25;;;19.25;;
78931;SDS011;68331;53.362;55.932;2024-01-30T04:45:15;37.90;;;19.13;;
78931;SDS011;68331;53.362;55.932;2024-01-30T04:47:40;44.15;;;19.35;;
78931;SDS011;68331;53.362;55.932;2024-01-30T04:50:07;40.20;;;20.15;;
78931;SDS011;68331;53.362;55.932;2024-01-30T04:52:34;41.08;;;18.77;;
78931;SDS011;68331;53.362;55.932;2024-01-30T04:55:00;46.42;;;21.15;;
78931;SDS011;68331;53.362;55.932;2024-01-30T04:57:26;43.85;;;21.33;;
78931;SDS011;68331;53.362;55.932;2024-01-30T04:59:51;47.88;;;21.58;;
78931;SDS011;68331;53.362;55.932;2024-01-30T05:02:17;43.67;;;20.60;;
78931;SDS011;68331;53.362;55.932;2024-01-30T05:04:43;50.55;;;22.20;;
78931;SDS011;68331;53.362;55.932;2024-01-30T05:07:09;43.35;;;19.50;;
78931;SDS011;68331;53.362;55.932;2024-01-30T05:09:35;42.05;;;21.33;;
78931;SDS011;68331;53.362;55.932;2024-01-30T05:12:01;40.60;;;19.05;;
78931;SDS011;68331;53.362;55.932;2024-01-30T05:14:27;42.63;;;20.52;;
78931;SDS011;68331;53.362;55.932;2024-01-30T05:16:52;35.72;;;18.20;;
78931;SDS011;68331;53.362;55.932;2024-01-30T05:19:18;41.35;;;19.52;;
78931;SDS011;68331;53.362;55.932;2024-01-30T05:21:45;44.38;;;18.05;;
78931;SDS011;68331;53.362;55.932;2024-01-30T05:24:11;33.85;;;17.92;;
78931;SDS011;68331;53.362;55.932;2024-01-30T05:26:37;35.78;;;17.23;;
78931;SDS011;68331;53.362;55.932;2024-01-30T05:29:03;37.90;;;19.52;;
78931;SDS011;68331;53.362;55.932;2024-01-30T05:31:29;46.60;;;17.63;;
78931;SDS011;68331;53.362;55.932;2024-01-30T05:33:55;35.10;;;16.38;;
78931;SDS011;68331;53.362;55.932;2024-01-30T05:36:21;36.20;;;18.85;;
78931;SDS011;68331;53.362;55.932;2024-01-30T05:38:47;35.25;;;17.05;;
78931;SDS011;68331;53.362;55.932;2024-01-30T05:41:12;38.75;;;19.02;;
78931;SDS011;68331;53.362;55.932;2024-01-30T05:43:39;39.45;;;17.08;;
78931;SDS011;68331;53.362;55.932;2024-01-30T05:46:06;32.97;;;15.18;;
78931;SDS011;68331;53.362;55.932;2024-01-30T05:48:32;30.92;;;16.02;;
78931;SDS011;68331;53.362;55.932;2024-01-30T05:50:58;33.42;;;17.33;;
78931;SDS011;68331;53.362;55.932;2024-01-30T05:53:25;28.88;;;15.48;;
78931;SDS011;68331;53.362;55.932;2024-01-30T05:55:51;29.95;;;14.93;;
78931;SDS011;68331;53.362;55.932;2024-01-30T05:58:16;29.33;;;14.77;;
78931;SDS011;68331;53.362;55.932;2024-01-30T06:00:42;29.58;;;15.20;;
78931;SDS011;68331;53.362;55.932;2024-01-30T06:03:08;28.67;;;14.57;;
78931;SDS011;68331;53.362;55.932;2024-01-30T06:05:34;27.10;;;15.63;;
78931;SDS011;68331;53.362;55.932;2024-01-30T06:07:59;26.90;;;13.77;;
78931;SDS011;68331;53.362;55.932;2024-01-30T06:10:27;23.98;;;13.70;;
78931;SDS011;68331;53.362;55.932;2024-01-30T06:12:53;24.73;;;13.32;;
78931;SDS011;68331;53.362;55.932;2024-01-30T06:15:19;25.90;;;13.60;;
78931;SDS011;68331;53.362;55.932;2024-01-30T06:17:44;30.58;;;13.25;;
78931;SDS011;68331;53.362;55.932;2024-01-30T06:20:10;23.95;;;12.52;;
78931;SDS011;68331;53.362;55.932;2024-01-30T06:22:36;23.45;;;12.60;;
78931;SDS011;68331;53.362;55.932;2024-01-30T06:25:02;23.95;;;12.70;;
78931;SDS011;68331;53.362;55.932;2024-01-30T06:27:28;21.27;;;12.40;;
78931;SDS011;68331;53.362;55.932;2024-01-30T06:29:54;19.55;;;10.43;;
78931;SDS011;68331;53.362;55.932;2024-01-30T06:32:20;22.00;;;11.98;;
78931;SDS011;68331;53.362;55.932;2024-01-30T06:34:46;21.67;;;12.07;;
78931;SDS011;68331;53.362;55.932;2024-01-30T06:37:12;20.38;;;12.52;;
78931;SDS011;68331;53.362;55.932;2024-01-30T06:39:37;17.67;;;10.40;;
78931;SDS011;68331;53.362;55.932;2024-01-30T06:42:03;18.98;;;10.32;;
78931;SDS011;68331;53.362;55.932;2024-01-30T06:44:30;18.30;;;11.35;;
78931;SDS011;68331;53.362;55.932;2024-01-30T06:46:56;19.52;;;11.30;;
78931;SDS011;68331;53.362;55.932;2024-01-30T06:49:22;24.33;;;11.20;;
78931;SDS011;68331;53.362;55.932;2024-01-30T06:51:47;20.38;;;11.10;;
78931;SDS011;68331;53.362;55.932;2024-01-30T06:54:14;20.55;;;10.50;;
78931;SDS011;68331;53.362;55.932;2024-01-30T06:56:40;20.08;;;10.10;;
78931;SDS011;68331;53.362;55.932;2024-01-30T06:59:06;19.85;;;11.10;;
78931;SDS011;68331;53.362;55.932;2024-01-30T07:01:32;19.80;;;11.80;;
78931;SDS011;68331;53.362;55.932;2024-01-30T07:03:58;18.33;;;9.93;;
78931;SDS011;68331;53.362;55.932;2024-01-30T07:06:24;21.42;;;11.35;;
78931;SDS011;68331;53.362;55.932;2024-01-30T07:08:50;19.83;;;10.65;;
78931;SDS011;68331;53.362;55.932;2024-01-30T07:11:21;18.98;;;9.90;;
78931;SDS011;68331;53.362;55.932;2024-01-30T07:13:50;17.20;;;9.63;;
78931;SDS011;68331;53.362;55.932;2024-01-30T07:16:16;15.48;;;8.45;;
78931;SDS011;68331;53.362;55.932;2024-01-30T07:18:43;17.50;;;9.57;;
78931;SDS011;68331;53.362;55.932;2024-01-30T07:21:09;14.68;;;8.73;;
78931;SDS011;68331;53.362;55.932;2024-01-30T07:23:35;15.55;;;9.10;;
78931;SDS011;68331;53.362;55.932;2024-01-30T07:26:04;15.00;;;7.93;;
78931;SDS011;68331;53.362;55.932;2024-01-30T07:28:32;12.27;;;7.70;;
78931;SDS011;68331;53.362;55.932;2024-01-30T07:30:58;13.82;;;8.00;;
78931;SDS011;68331;53.362;55.932;2024-01-30T07:33:25;13.52;;;8.05;;
78931;SDS011;68331;53.362;55.932;2024-01-30T07:35:52;13.35;;;8.90;;
78931;SDS011;68331;53.362;55.932;2024-01-30T07:38:18;15.25;;;8.02;;
78931;SDS011;68331;53.362;55.932;2024-01-30T07:40:45;12.32;;;7.47;;
78931;SDS011;68331;53.362;55.932;2024-01-30T07:43:11;15.15;;;7.63;;
78931;SDS011;68331;53.362;55.932;2024-01-30T07:45:37;13.32;;;9.05;;
78931;SDS011;68331;53.362;55.932;2024-01-30T07:48:05;16.55;;;8.43;;
78931;SDS011;68331;53.362;55.932;2024-01-30T07:50:31;22.60;;;14.10;;
78931;SDS011;68331;53.362;55.932;2024-01-30T07:52:59;11.82;;;7.93;;
78931;SDS011;68331;53.362;55.932;2024-01-30T07:55:26;12.35;;;7.85;;
78931;SDS011;68331;53.362;55.932;2024-01-30T07:57:54;13.52;;;8.10;;
78931;SDS011;68331;53.362;55.932;2024-01-30T08:00:21;16.02;;;9.43;;
78931;SDS011;68331;53.362;55.932;2024-01-30T08:02:47;16.02;;;8.55;;
78931;SDS011;68331;53.362;55.932;2024-01-30T08:05:13;12.57;;;7.50;;
78931;SDS011;68331;53.362;55.932;2024-01-30T08:07:43;12.20;;;7.82;;
78931;SDS011;68331;53.362;55.932;2024-01-30T08:10:09;13.07;;;8.18;;
78931;SDS011;68331;53.362;55.932;2024-01-30T08:12:37;14.10;;;8.50;;
78931;SDS011;68331;53.362;55.932;2024-01-30T08:15:03;14.73;;;7.15;;
78931;SDS011;68331;53.362;55.932;2024-01-30T08:17:29;12.23;;;8.25;;
78931;SDS011;68331;53.362;55.932;2024-01-30T08:19:55;10.88;;;6.88;;
78931;SDS011;68331;53.362;55.932;2024-01-30T08:22:21;13.20;;;6.68;;
78931;SDS011;68331;53.362;55.932;2024-01-30T08:24:47;12.93;;;7.55;;
78931;SDS011;68331;53.362;55.932;2024-01-30T08:27:13;12.60;;;7.65;;
78931;SDS011;68331;53.362;55.932;2024-01-30T08:29:39;13.63;;;6.90;;
78931;SDS011;68331;53.362;55.932;2024-01-30T08:32:08;12.18;;;6.28;;
78931;SDS011;68331;53.362;55.932;2024-01-30T08:34:33;12.63;;;6.90;;
78931;SDS011;68331;53.362;55.932;2024-01-30T08:36:59;15.25;;;6.68;;
78931;SDS011;68331;53.362;55.932;2024-01-30T08:39:25;10.07;;;6.43;;
78931;SDS011;68331;53.362;55.932;2024-01-30T08:41:51;11.23;;;6.35;;
78931;SDS011;68331;53.362;55.932;2024-01-30T08:44:17;12.43;;;6.68;;
78931;SDS011;68331;53.362;55.932;2024-01-30T08:46:46;13.65;;;6.63;;
78931;SDS011;68331;53.362;55.932;2024-01-30T08:49:12;13.15;;;7.10;;
78931;SDS011;68331;53.362;55.932;2024-01-30T08:51:38;11.38;;;6.90;;
78931;SDS011;68331;53.362;55.932;2024-01-30T08:54:05;13.32;;;7.72;;
78931;SDS011;68331;53.362;55.932;2024-01-30T08:56:31;9.88;;;6.65;;
78931;SDS011;68331;53.362;55.932;2024-01-30T08:58:57;11.15;;;6.30;;
78931;SDS011;68331;53.362;55.932;2024-01-30T09:01:23;12.65;;;7.90;;
78931;SDS011;68331;53.362;55.932;2024-01-30T09:03:48;10.80;;;6.43;;
78931;SDS011;68331;53.362;55.932;2024-01-30T09:06:14;10.65;;;6.70;;
78931;SDS011;68331;53.362;55.932;2024-01-30T09:08:40;13.98;;;7.35;;
78931;SDS011;68331;53.362;55.932;2024-01-30T09:11:12;10.18;;;6.65;;
78931;SDS011;68331;53.362;55.932;2024-01-30T09:13:39;8.90;;;5.80;;
78931;SDS011;68331;53.362;55.932;2024-01-30T09:16:05;11.25;;;6.53;;
78931;SDS011;68331;53.362;55.932;2024-01-30T09:18:32;11.15;;;6.75;;
78931;SDS011;68331;53.362;55.932;2024-01-30T09:20:58;11.60;;;6.20;;
78931;SDS011;68331;53.362;55.932;2024-01-30T09:23:24;11.45;;;6.72;;
78931;SDS011;68331;53.362;55.932;2024-01-30T09:25:50;12.18;;;7.95;;
78931;SDS011;68331;53.362;55.932;2024-01-30T09:28:18;14.45;;;7.35;;
78931;SDS011;68331;53.362;55.932;2024-01-30T09:30:44;14.82;;;7.43;;
78931;SDS011;68331;53.362;55.932;2024-01-30T09:33:10;11.75;;;8.07;;
78931;SDS011;68331;53.362;55.932;2024-01-30T09:35:36;10.60;;;6.32;;
78931;SDS011;68331;53.362;55.932;2024-01-30T09:38:02;10.35;;;6.13;;
78931;SDS011;68331;53.362;55.932;2024-01-30T09:40:28;11.50;;;7.00;;
78931;SDS011;68331;53.362;55.932;2024-01-30T09:42:54;11.55;;;7.03;;
78931;SDS011;68331;53.362;55.932;2024-01-30T09:45:24;13.57;;;6.32;;
78931;SDS011;68331;53.362;55.932;2024-01-30T09:47:51;12.27;;;6.32;;
78931;SDS011;68331;53.362;55.932;2024-01-30T09:50:17;13.15;;;6.93;;
78931;SDS011;68331;53.362;55.932;2024-01-30T09:52:44;10.35;;;6.47;;
78931;SDS011;68331;53.362;55.932;2024-01-30T09:55:11;10.35;;;6.22;;
78931;SDS011;68331;53.362;55.932;2024-01-30T09:57:37;9.02;;;6.07;;
78931;SDS011;68331;53.362;55.932;2024-01-30T10:00:04;11.23;;;6.30;;
78931;SDS011;68331;53.362;55.932;2024-01-30T10:02:40;12.63;;;7.13;;
78931;SDS011;68331;53.362;55.932;2024-01-30T10:05:07;13.48;;;6.95;;
78931;SDS011;68331;53.362;55.932;2024-01-30T10:07:33;12.77;;;6.32;;
78931;SDS011;68331;53.362;55.932;2024-01-30T10:10:00;12.73;;;6.82;;
78931;SDS011;68331;53.362;55.932;2024-01-30T10:12:26;9.20;;;6.30;;
78931;SDS011;68331;53.362;55.932;2024-01-30T10:14:52;11.52;;;5.97;;
78931;SDS011;68331;53.362;55.932;2024-01-30T10:17:17;10.30;;;6.10;;
78931;SDS011;68331;53.362;55.932;2024-01-30T10:19:43;9.60;;;5.85;;
78931;SDS011;68331;53.362;55.932;2024-01-30T10:22:10;11.05;;;6.13;;
78931;SDS011;68331;53.362;55.932;2024-01-30T10:24:36;9.95;;;5.57;;
78931;SDS011;68331;53.362;55.932;2024-01-30T10:27:02;13.02;;;6.30;;
78931;SDS011;68331;53.362;55.932;2024-01-30T10:29:28;10.55;;;6.28;;
78931;SDS011;68331;53.362;55.932;2024-01-30T10:31:58;9.90;;;8.70;;
78931;SDS011;68331;53.362;55.932;2024-01-30T10:34:25;10.15;;;6.57;;
78931;SDS011;68331;53.362;55.932;2024-01-30T10:36:53;9.65;;;6.80;;
78931;SDS011;68331;53.362;55.932;2024-01-30T10:39:29;13.00;;;6.68;;
78931;SDS011;68331;53.362;55.932;2024-01-30T10:41:59;9.55;;;5.25;;
78931;SDS011;68331;53.362;55.932;2024-01-30T10:44:33;9.30;;;5.70;;
78931;SDS011;68331;53.362;55.932;2024-01-30T10:47:11;9.52;;;6.05;;
78931;SDS011;68331;53.362;55.932;2024-01-30T10:49:40;10.27;;;5.97;;
78931;SDS011;68331;53.362;55.932;2024-01-30T10:52:08;9.43;;;5.90;;
78931;SDS011;68331;53.362;55.932;2024-01-30T10:54:35;8.90;;;6.03;;
78931;SDS011;68331;53.362;55.932;2024-01-30T10:57:03;8.95;;;5.95;;
78931;SDS011;68331;53.362;55.932;2024-01-30T10:59:31;8.98;;;6.00;;
78931;SDS011;68331;53.362;55.932;2024-01-30T11:01:58;14.40;;;6.22;;
78931;SDS011;68331;53.362;55.932;2024-01-30T11:04:25;10.75;;;6.45;;
78931;SDS011;68331;53.362;55.932;2024-01-30T11:06:50;10.13;;;5.55;;
78931;SDS011;68331;53.362;55.932;2024-01-30T11:09:17;8.85;;;6.93;;
78931;SDS011;68331;53.362;55.932;2024-01-30T11:11:48;11.90;;;6.60;;
78931;SDS011;68331;53.362;55.932;2024-01-30T11:14:14;10.73;;;6.10;;
78931;SDS011;68331;53.362;55.932;2024-01-30T11:16:40;10.88;;;7.10;;
78931;SDS011;68331;53.362;55.932;2024-01-30T11:19:10;10.65;;;5.68;;
78931;SDS011;68331;53.362;55.932;2024-01-30T11:21:43;11.10;;;6.28;;
78931;SDS011;68331;53.362;55.932;2024-01-30T11:24:09;8.10;;;5.18;;
78931;SDS011;68331;53.362;55.932;2024-01-30T11:26:35;8.07;;;6.22;;
78931;SDS011;68331;53.362;55.932;2024-01-30T11:29:07;10.63;;;7.10;;
78931;SDS011;68331;53.362;55.932;2024-01-30T11:31:33;13.25;;;6.72;;
78931;SDS011;68331;53.362;55.932;2024-01-30T11:33:59;9.88;;;6.18;;
78931;SDS011;68331;53.362;55.932;2024-01-30T11:36:26;9.50;;;6.22;;
78931;SDS011;68331;53.362;55.932;2024-01-30T11:38:52;10.18;;;5.18;;
78931;SDS011;68331;53.362;55.932;2024-01-30T11:41:19;11.00;;;7.30;;
78931;SDS011;68331;53.362;55.932;2024-01-30T11:43:55;7.90;;;5.15;;
78931;SDS011;68331;53.362;55.932;2024-01-30T11:46:20;9.13;;;5.72;;
78931;SDS011;68331;53.362;55.932;2024-01-30T11:48:46;9.18;;;5.80;;
78931;SDS011;68331;53.362;55.932;2024-01-30T11:51:13;9.43;;;5.85;;
78931;SDS011;68331;53.362;55.932;2024-01-30T11:53:39;7.30;;;5.47;;
78931;SDS011;68331;53.362;55.932;2024-01-30T11:56:07;9.45;;;5.95;;
78931;SDS011;68331;53.362;55.932;2024-01-30T11:58:33;9.23;;;6.03;;
78931;SDS011;68331;53.362;55.932;2024-01-30T12:00:59;8.75;;;6.10;;
78931;SDS011;68331;53.362;55.932;2024-01-30T12:03:26;9.25;;;6.55;;
78931;SDS011;68331;53.362;55.932;2024-01-30T12:05:55;11.10;;;5.43;;
78931;SDS011;68331;53.362;55.932;2024-01-30T12:08:23;9.25;;;5.80;;
78931;SDS011;68331;53.362;55.932;2024-01-30T12:10:59;10.63;;;6.50;;
78931;SDS011;68331;53.362;55.932;2024-01-30T12:13:27;11.30;;;6.35;;
78931;SDS011;68331;53.362;55.932;2024-01-30T12:15:54;9.40;;;5.57;;
78931;SDS011;68331;53.362;55.932;2024-01-30T12:18:20;10.52;;;6.22;;
78931;SDS011;68331;53.362;55.932;2024-01-30T12:20:56;12.90;;;5.20;;
78931;SDS011;68331;53.362;55.932;2024-01-30T12:23:23;8.20;;;4.95;;
78931;SDS011;68331;53.362;55.932;2024-01-30T12:25:52;8.30;;;5.38;;
78931;SDS011;68331;53.362;55.932;2024-01-30T12:28:18;9.30;;;5.20;;
78931;SDS011;68331;53.362;55.932;2024-01-30T12:30:44;8.82;;;5.47;;
78931;SDS011;68331;53.362;55.932;2024-01-30T12:33:15;8.10;;;6.40;;
78931;SDS011;68331;53.362;55.932;2024-01-30T12:35:45;7.57;;;5.38;;
78931;SDS011;68331;53.362;55.932;2024-01-30T12:38:12;6.93;;;5.55;;
78931;SDS011;68331;53.362;55.932;2024-01-30T12:40:38;7.57;;;5.40;;
78931;SDS011;68331;53.362;55.932;2024-01-30T12:43:04;6.82;;;4.65;;
78931;SDS011;68331;53.362;55.932;2024-01-30T12:45:30;7.38;;;5.38;;
78931;SDS011;68331;53.362;55.932;2024-01-30T12:47:56;7.65;;;6.85;;
78931;SDS011;68331;53.362;55.932;2024-01-30T12:50:22;9.02;;;6.93;;
78931;SDS011;68331;53.362;55.932;2024-01-30T12:52:47;5.90;;;5.10;;
78931;SDS011;68331;53.362;55.932;2024-01-30T12:55:13;7.43;;;4.97;;
78931;SDS011;68331;53.362;55.932;2024-01-30T12:57:39;8.13;;;4.47;;
78931;SDS011;68331;53.362;55.932;2024-01-30T13:00:05;5.65;;;4.60;;
78931;SDS011;68331;53.362;55.932;2024-01-30T13:02:34;6.38;;;4.93;;
78931;SDS011;68331;53.362;55.932;2024-01-30T13:05:05;6.47;;;4.70;;
78931;SDS011;68331;53.362;55.932;2024-01-30T13:07:31;7.90;;;4.72;;
78931;SDS011;68331;53.362;55.932;2024-01-30T13:09:57;6.70;;;4.97;;
78931;SDS011;68331;53.362;55.932;2024-01-30T13:12:29;6.82;;;5.10;;
78931;SDS011;68331;53.362;55.932;2024-01-30T13:14:57;5.85;;;4.82;;
78931;SDS011;68331;53.362;55.932;2024-01-30T13:17:24;7.63;;;4.47;;
78931;SDS011;68331;53.362;55.932;2024-01-30T13:19:50;7.45;;;4.68;;
78931;SDS011;68331;53.362;55.932;2024-01-30T13:22:16;4.95;;;4.45;;
78931;SDS011;68331;53.362;55.932;2024-01-30T13:24:42;5.32;;;4.20;;
78931;SDS011;68331;53.362;55.932;2024-01-30T13:27:08;5.57;;;4.68;;
78931;SDS011;68331;53.362;55.932;2024-01-30T13:29:34;6.10;;;4.35;;
78931;SDS011;68331;53.362;55.932;2024-01-30T13:32:00;5.43;;;4.53;;
78931;SDS011;68331;53.362;55.932;2024-01-30T13:34:26;19.20;;;10.55;;
78931;SDS011;68331;53.362;55.932;2024-01-30T13:36:52;6.13;;;5.15;;
78931;SDS011;68331;53.362;55.932;2024-01-30T13:39:17;9.10;;;5.82;;
78931;SDS011;68331;53.362;55.932;2024-01-30T13:41:44;5.28;;;4.78;;
78931;SDS011;68331;53.362;55.932;2024-01-30T13:44:10;6.32;;;4.10;;
78931;SDS011;68331;53.362;55.932;2024-01-30T13:46:35;6.65;;;3.95;;
78931;SDS011;68331;53.362;55.932;2024-01-30T13:49:01;7.75;;;4.88;;
78931;SDS011;68331;53.362;55.932;2024-01-30T13:51:27;7.57;;;4.70;;
78931;SDS011;68331;53.362;55.932;2024-01-30T13:53:53;7.03;;;4.75;;
78931;SDS011;68331;53.362;55.932;2024-01-30T13:56:20;6.00;;;5.50;;
78931;SDS011;68331;53.362;55.932;2024-01-30T13:58:48;9.15;;;6.82;;
78931;SDS011;68331;53.362;55.932;2024-01-30T14:01:15;7.50;;;5.03;;
78931;SDS011;68331;53.362;55.932;2024-01-30T14:03:42;12.02;;;5.97;;
78931;SDS011;68331;53.362;55.932;2024-01-30T14:06:08;9.13;;;5.78;;
78931;SDS011;68331;53.362;55.932;2024-01-30T14:08:33;9.38;;;6.93;;
78931;SDS011;68331;53.362;55.932;2024-01-30T14:10:59;8.40;;;4.88;;
78931;SDS011;68331;53.362;55.932;2024-01-30T14:13:25;8.70;;;5.43;;
78931;SDS011;68331;53.362;55.932;2024-01-30T14:15:52;11.48;;;5.38;;